If you wish to contribute or participate in the discussions about articles you are invited to join SKYbrary as a registered user

 Actions

Kulusuk Airport

From SKYbrary Wiki

BGKK
Airport
ICAO: BGKK – IATA: KUS
Summary
Name Kulusuk Airport
Region Northern Atlantic
Territory Greenland GL.gif
Location Kulusuk Island, Sermersooq
Serving Kulusuk
Elevation 131.234 ft
131.234 ft40 m
Coordinates 65° 34' 25.00" N, 37° 7' 25.00" W
Runways
Designator Length Width Surface ROPS
11/29 1199 m3,933.727 ft
0 m0 ft
UNK /


METAR
Observation BGKK 112350Z AUTO 06028G42KT 9999NDV -RA BKN025/// 04/M01 Q0992
Station Kulusuk Lufthavn
Date/Time 11 November 2019 23:50:00
Wind direction 60°
Wind speed 28 kts
Lowest cloud amount broken clouds
Temperature 4°C
Dew point
Humidity 69%
QNH 992 hPa
Weather condition n/a

CFIT
Tag(s) Altimeter Temperature Error Correction

Kulusuk Airport

ICAO: BGKK IATA: GOH

Description

Kulusuk Airport is an airport in Kulusuk, a settlement on an island of the same name off the shore of the North Atlantic in the Sermersooq municipality in southeastern Greenland.

Climatology

Tundra Climate (Köppen climate classification ET) - average temperature below 10°C50 °F
283.15 K
509.67 °R
in all twelve months of the year with very little precipitation.

Maps

Terrain

Loading map...

Airport Layout

Loading map...


Accidents & Serious Incidents at or in vicinity of BGKK

None on SKYbrary